sensor_id;sensor_type;location;lat;lon;timestamp;P1;durP1;ratioP1;P2;durP2;ratioP2
38240;SDS011;24037;49.536;8.500;2022-11-11T00:02:16;12.85;;;5.00;;
38240;SDS011;24037;49.536;8.500;2022-11-11T00:05:00;8.63;;;4.70;;
38240;SDS011;24037;49.536;8.500;2022-11-11T00:07:45;8.70;;;4.40;;
38240;SDS011;24037;49.536;8.500;2022-11-11T00:10:29;13.35;;;5.57;;
38240;SDS011;24037;49.536;8.500;2022-11-11T00:13:14;11.50;;;6.00;;
38240;SDS011;24037;49.536;8.500;2022-11-11T00:16:12;15.75;;;6.35;;
38240;SDS011;24037;49.536;8.500;2022-11-11T00:18:59;15.70;;;8.50;;
38240;SDS011;24037;49.536;8.500;2022-11-11T00:22:02;16.35;;;7.50;;
38240;SDS011;24037;49.536;8.500;2022-11-11T00:25:06;12.75;;;6.80;;
38240;SDS011;24037;49.536;8.500;2022-11-11T00:27:52;14.07;;;6.13;;
38240;SDS011;24037;49.536;8.500;2022-11-11T00:30:37;22.08;;;7.20;;
38240;SDS011;24037;49.536;8.500;2022-11-11T00:33:21;17.33;;;7.13;;
38240;SDS011;24037;49.536;8.500;2022-11-11T00:36:06;12.88;;;6.22;;
38240;SDS011;24037;49.536;8.500;2022-11-11T00:38:51;19.88;;;6.03;;
38240;SDS011;24037;49.536;8.500;2022-11-11T00:41:38;14.63;;;6.60;;
38240;SDS011;24037;49.536;8.500;2022-11-11T00:44:23;16.15;;;6.03;;
38240;SDS011;24037;49.536;8.500;2022-11-11T00:47:07;15.50;;;6.75;;
38240;SDS011;24037;49.536;8.500;2022-11-11T00:50:13;15.02;;;7.07;;
38240;SDS011;24037;49.536;8.500;2022-11-11T00:53:19;14.70;;;6.32;;
38240;SDS011;24037;49.536;8.500;2022-11-11T00:56:06;18.85;;;6.38;;
38240;SDS011;24037;49.536;8.500;2022-11-11T00:58:51;13.10;;;6.32;;
38240;SDS011;24037;49.536;8.500;2022-11-11T01:01:36;16.35;;;7.40;;
38240;SDS011;24037;49.536;8.500;2022-11-11T01:04:21;15.38;;;7.07;;
38240;SDS011;24037;49.536;8.500;2022-11-11T01:07:06;17.30;;;7.40;;
38240;SDS011;24037;49.536;8.500;2022-11-11T01:09:51;17.77;;;6.82;;
38240;SDS011;24037;49.536;8.500;2022-11-11T01:12:35;12.40;;;6.68;;
38240;SDS011;24037;49.536;8.500;2022-11-11T01:15:20;12.40;;;6.68;;
38240;SDS011;24037;49.536;8.500;2022-11-11T01:18:04;13.18;;;7.95;;
38240;SDS011;24037;49.536;8.500;2022-11-11T01:21:09;18.15;;;7.93;;
38240;SDS011;24037;49.536;8.500;2022-11-11T01:23:58;19.55;;;8.25;;
38240;SDS011;24037;49.536;8.500;2022-11-11T01:26:44;20.48;;;8.77;;
38240;SDS011;24037;49.536;8.500;2022-11-11T01:29:29;32.83;;;9.13;;
38240;SDS011;24037;49.536;8.500;2022-11-11T01:32:13;24.92;;;8.98;;
38240;SDS011;24037;49.536;8.500;2022-11-11T01:34:58;19.45;;;8.43;;
38240;SDS011;24037;49.536;8.500;2022-11-11T01:37:42;17.80;;;8.55;;
38240;SDS011;24037;49.536;8.500;2022-11-11T01:40:27;20.40;;;8.45;;
38240;SDS011;24037;49.536;8.500;2022-11-11T01:43:19;16.33;;;7.72;;
38240;SDS011;24037;49.536;8.500;2022-11-11T01:46:08;16.90;;;8.07;;
38240;SDS011;24037;49.536;8.500;2022-11-11T01:49:15;18.17;;;8.13;;
38240;SDS011;24037;49.536;8.500;2022-11-11T01:55:03;16.17;;;7.68;;
38240;SDS011;24037;49.536;8.500;2022-11-11T01:57:56;16.92;;;8.30;;
38240;SDS011;24037;49.536;8.500;2022-11-11T02:00:45;24.02;;;9.35;;
38240;SDS011;24037;49.536;8.500;2022-11-11T02:03:30;19.60;;;9.85;;
38240;SDS011;24037;49.536;8.500;2022-11-11T02:06:18;31.75;;;11.35;;
38240;SDS011;24037;49.536;8.500;2022-11-11T02:09:04;22.63;;;9.93;;
38240;SDS011;24037;49.536;8.500;2022-11-11T02:11:50;21.73;;;9.77;;
38240;SDS011;24037;49.536;8.500;2022-11-11T02:14:56;23.02;;;9.07;;
38240;SDS011;24037;49.536;8.500;2022-11-11T02:17:44;23.02;;;10.07;;
38240;SDS011;24037;49.536;8.500;2022-11-11T02:20:42;21.85;;;8.43;;
38240;SDS011;24037;49.536;8.500;2022-11-11T02:23:30;26.45;;;10.45;;
38240;SDS011;24037;49.536;8.500;2022-11-11T02:26:16;38.42;;;10.52;;
38240;SDS011;24037;49.536;8.500;2022-11-11T02:29:03;27.08;;;11.57;;
38240;SDS011;24037;49.536;8.500;2022-11-11T02:31:53;20.95;;;10.80;;
38240;SDS011;24037;49.536;8.500;2022-11-11T02:34:38;22.55;;;10.63;;
38240;SDS011;24037;49.536;8.500;2022-11-11T02:37:23;26.70;;;12.02;;
38240;SDS011;24037;49.536;8.500;2022-11-11T02:40:10;22.02;;;10.18;;
38240;SDS011;24037;49.536;8.500;2022-11-11T02:42:57;21.67;;;10.25;;
38240;SDS011;24037;49.536;8.500;2022-11-11T02:45:42;23.77;;;9.50;;
38240;SDS011;24037;49.536;8.500;2022-11-11T02:48:26;25.65;;;11.45;;
38240;SDS011;24037;49.536;8.500;2022-11-11T02:51:12;23.80;;;10.60;;
38240;SDS011;24037;49.536;8.500;2022-11-11T02:53:56;23.20;;;10.82;;
38240;SDS011;24037;49.536;8.500;2022-11-11T02:56:44;34.92;;;12.02;;
38240;SDS011;24037;49.536;8.500;2022-11-11T02:59:47;32.40;;;11.90;;
38240;SDS011;24037;49.536;8.500;2022-11-11T03:02:32;30.42;;;10.48;;
38240;SDS011;24037;49.536;8.500;2022-11-11T03:05:17;34.20;;;10.95;;
38240;SDS011;24037;49.536;8.500;2022-11-11T03:08:02;29.38;;;10.98;;
38240;SDS011;24037;49.536;8.500;2022-11-11T03:10:47;22.73;;;10.68;;
38240;SDS011;24037;49.536;8.500;2022-11-11T03:13:32;29.17;;;13.13;;
38240;SDS011;24037;49.536;8.500;2022-11-11T03:16:16;33.60;;;12.27;;
38240;SDS011;24037;49.536;8.500;2022-11-11T03:19:19;23.20;;;11.43;;
38240;SDS011;24037;49.536;8.500;2022-11-11T03:22:04;26.52;;;10.65;;
38240;SDS011;24037;49.536;8.500;2022-11-11T03:24:48;33.15;;;11.55;;
38240;SDS011;24037;49.536;8.500;2022-11-11T03:27:52;33.72;;;10.95;;
38240;SDS011;24037;49.536;8.500;2022-11-11T03:30:36;19.15;;;9.32;;
38240;SDS011;24037;49.536;8.500;2022-11-11T03:33:22;22.58;;;11.13;;
38240;SDS011;24037;49.536;8.500;2022-11-11T03:36:07;23.63;;;12.52;;
38240;SDS011;24037;49.536;8.500;2022-11-11T03:38:52;23.10;;;11.10;;
38240;SDS011;24037;49.536;8.500;2022-11-11T03:41:36;26.88;;;11.70;;
38240;SDS011;24037;49.536;8.500;2022-11-11T03:44:21;24.92;;;11.43;;
38240;SDS011;24037;49.536;8.500;2022-11-11T03:47:05;24.75;;;11.18;;
38240;SDS011;24037;49.536;8.500;2022-11-11T03:49:50;21.20;;;9.90;;
38240;SDS011;24037;49.536;8.500;2022-11-11T03:52:35;23.42;;;10.75;;
38240;SDS011;24037;49.536;8.500;2022-11-11T03:55:25;24.30;;;10.50;;
38240;SDS011;24037;49.536;8.500;2022-11-11T03:58:10;22.35;;;10.35;;
38240;SDS011;24037;49.536;8.500;2022-11-11T04:00:55;26.08;;;12.02;;
38240;SDS011;24037;49.536;8.500;2022-11-11T04:03:40;30.73;;;12.73;;
38240;SDS011;24037;49.536;8.500;2022-11-11T04:06:43;24.38;;;11.35;;
38240;SDS011;24037;49.536;8.500;2022-11-11T04:09:47;27.90;;;10.70;;
38240;SDS011;24037;49.536;8.500;2022-11-11T04:12:50;23.92;;;10.52;;
38240;SDS011;24037;49.536;8.500;2022-11-11T04:15:55;24.92;;;11.23;;
38240;SDS011;24037;49.536;8.500;2022-11-11T04:18:51;23.88;;;12.32;;
38240;SDS011;24037;49.536;8.500;2022-11-11T04:21:55;25.50;;;12.50;;
38240;SDS011;24037;49.536;8.500;2022-11-11T04:24:40;20.25;;;12.02;;
38240;SDS011;24037;49.536;8.500;2022-11-11T04:27:44;20.50;;;10.20;;
38240;SDS011;24037;49.536;8.500;2022-11-11T04:30:28;23.83;;;11.23;;
38240;SDS011;24037;49.536;8.500;2022-11-11T04:33:12;24.75;;;12.50;;
38240;SDS011;24037;49.536;8.500;2022-11-11T04:35:57;23.73;;;11.48;;
38240;SDS011;24037;49.536;8.500;2022-11-11T04:38:42;22.35;;;10.63;;
38240;SDS011;24037;49.536;8.500;2022-11-11T04:41:45;16.73;;;9.18;;
38240;SDS011;24037;49.536;8.500;2022-11-11T04:44:30;20.08;;;8.00;;
38240;SDS011;24037;49.536;8.500;2022-11-11T04:47:34;16.58;;;8.27;;
38240;SDS011;24037;49.536;8.500;2022-11-11T04:50:18;18.70;;;8.90;;
38240;SDS011;24037;49.536;8.500;2022-11-11T04:53:04;16.75;;;8.55;;
38240;SDS011;24037;49.536;8.500;2022-11-11T04:55:51;21.40;;;9.15;;
38240;SDS011;24037;49.536;8.500;2022-11-11T04:58:54;20.33;;;9.30;;
38240;SDS011;24037;49.536;8.500;2022-11-11T05:01:58;18.10;;;8.65;;
38240;SDS011;24037;49.536;8.500;2022-11-11T05:05:02;20.30;;;8.43;;
38240;SDS011;24037;49.536;8.500;2022-11-11T05:07:48;23.05;;;9.05;;
38240;SDS011;24037;49.536;8.500;2022-11-11T05:10:51;18.50;;;8.50;;
38240;SDS011;24037;49.536;8.500;2022-11-11T05:13:36;22.60;;;9.73;;
38240;SDS011;24037;49.536;8.500;2022-11-11T05:16:43;21.08;;;10.63;;
38240;SDS011;24037;49.536;8.500;2022-11-11T05:19:48;19.55;;;9.45;;
38240;SDS011;24037;49.536;8.500;2022-11-11T05:22:52;25.30;;;10.18;;
38240;SDS011;24037;49.536;8.500;2022-11-11T05:25:36;23.63;;;9.05;;
38240;SDS011;24037;49.536;8.500;2022-11-11T05:28:21;26.63;;;8.88;;
38240;SDS011;24037;49.536;8.500;2022-11-11T05:31:05;32.72;;;10.85;;
38240;SDS011;24037;49.536;8.500;2022-11-11T05:33:50;28.05;;;9.80;;
38240;SDS011;24037;49.536;8.500;2022-11-11T05:36:35;60.55;;;13.45;;
38240;SDS011;24037;49.536;8.500;2022-11-11T05:39:21;28.35;;;9.88;;
38240;SDS011;24037;49.536;8.500;2022-11-11T05:42:05;25.63;;;10.05;;
38240;SDS011;24037;49.536;8.500;2022-11-11T05:44:50;22.77;;;9.40;;
38240;SDS011;24037;49.536;8.500;2022-11-11T05:47:35;21.73;;;9.25;;
38240;SDS011;24037;49.536;8.500;2022-11-11T05:50:19;25.77;;;10.70;;
38240;SDS011;24037;49.536;8.500;2022-11-11T05:53:04;26.20;;;12.18;;
38240;SDS011;24037;49.536;8.500;2022-11-11T05:55:49;27.55;;;12.88;;
38240;SDS011;24037;49.536;8.500;2022-11-11T05:58:34;27.02;;;10.68;;
38240;SDS011;24037;49.536;8.500;2022-11-11T06:01:18;30.33;;;11.85;;
38240;SDS011;24037;49.536;8.500;2022-11-11T06:04:03;34.33;;;13.60;;
38240;SDS011;24037;49.536;8.500;2022-11-11T06:06:48;38.33;;;12.93;;
38240;SDS011;24037;49.536;8.500;2022-11-11T06:09:33;34.42;;;13.18;;
38240;SDS011;24037;49.536;8.500;2022-11-11T06:12:18;32.13;;;13.95;;
38240;SDS011;24037;49.536;8.500;2022-11-11T06:15:02;31.38;;;14.52;;
38240;SDS011;24037;49.536;8.500;2022-11-11T06:17:47;33.97;;;13.75;;
38240;SDS011;24037;49.536;8.500;2022-11-11T06:20:32;37.15;;;13.32;;
38240;SDS011;24037;49.536;8.500;2022-11-11T06:23:18;38.22;;;13.43;;
38240;SDS011;24037;49.536;8.500;2022-11-11T06:26:03;36.10;;;13.05;;
38240;SDS011;24037;49.536;8.500;2022-11-11T06:28:58;33.80;;;11.27;;
38240;SDS011;24037;49.536;8.500;2022-11-11T06:31:43;32.05;;;12.73;;
38240;SDS011;24037;49.536;8.500;2022-11-11T06:34:28;30.77;;;12.20;;
38240;SDS011;24037;49.536;8.500;2022-11-11T06:37:12;38.70;;;12.60;;
38240;SDS011;24037;49.536;8.500;2022-11-11T06:39:57;34.50;;;11.43;;
38240;SDS011;24037;49.536;8.500;2022-11-11T06:42:41;42.50;;;13.25;;
38240;SDS011;24037;49.536;8.500;2022-11-11T06:45:27;43.92;;;13.80;;
38240;SDS011;24037;49.536;8.500;2022-11-11T06:48:13;44.58;;;13.18;;
38240;SDS011;24037;49.536;8.500;2022-11-11T06:51:01;51.50;;;14.85;;
38240;SDS011;24037;49.536;8.500;2022-11-11T06:53:48;76.65;;;23.38;;
38240;SDS011;24037;49.536;8.500;2022-11-11T06:56:33;47.22;;;20.00;;
38240;SDS011;24037;49.536;8.500;2022-11-11T06:59:17;74.53;;;19.20;;
38240;SDS011;24037;49.536;8.500;2022-11-11T07:02:01;55.50;;;16.55;;
38240;SDS011;24037;49.536;8.500;2022-11-11T07:04:46;37.40;;;15.57;;
38240;SDS011;24037;49.536;8.500;2022-11-11T07:07:31;38.30;;;14.30;;
38240;SDS011;24037;49.536;8.500;2022-11-11T07:10:15;37.88;;;14.80;;
38240;SDS011;24037;49.536;8.500;2022-11-11T07:13:01;29.85;;;13.10;;
38240;SDS011;24037;49.536;8.500;2022-11-11T07:15:46;41.88;;;14.02;;
38240;SDS011;24037;49.536;8.500;2022-11-11T07:18:31;47.67;;;14.80;;
38240;SDS011;24037;49.536;8.500;2022-11-11T07:21:15;41.42;;;13.60;;
38240;SDS011;24037;49.536;8.500;2022-11-11T07:24:00;40.92;;;14.18;;
38240;SDS011;24037;49.536;8.500;2022-11-11T07:26:44;38.60;;;15.38;;
38240;SDS011;24037;49.536;8.500;2022-11-11T07:29:29;51.55;;;18.75;;
38240;SDS011;24037;49.536;8.500;2022-11-11T07:32:13;58.55;;;18.02;;
38240;SDS011;24037;49.536;8.500;2022-11-11T07:35:00;46.58;;;17.85;;
38240;SDS011;24037;49.536;8.500;2022-11-11T07:37:45;40.80;;;14.90;;
38240;SDS011;24037;49.536;8.500;2022-11-11T07:40:30;52.30;;;15.98;;
38240;SDS011;24037;49.536;8.500;2022-11-11T07:43:15;49.58;;;15.23;;
38240;SDS011;24037;49.536;8.500;2022-11-11T07:45:59;49.17;;;16.42;;
38240;SDS011;24037;49.536;8.500;2022-11-11T07:48:44;49.95;;;17.25;;
38240;SDS011;24037;49.536;8.500;2022-11-11T07:51:28;40.85;;;18.13;;
38240;SDS011;24037;49.536;8.500;2022-11-11T07:54:12;65.53;;;24.25;;
38240;SDS011;24037;49.536;8.500;2022-11-11T07:56:58;55.25;;;21.70;;
38240;SDS011;24037;49.536;8.500;2022-11-11T07:59:43;41.72;;;21.17;;
38240;SDS011;24037;49.536;8.500;2022-11-11T08:02:27;33.65;;;17.75;;
38240;SDS011;24037;49.536;8.500;2022-11-11T08:05:12;26.30;;;17.42;;
38240;SDS011;24037;49.536;8.500;2022-11-11T08:08:01;27.33;;;15.60;;
38240;SDS011;24037;49.536;8.500;2022-11-11T08:10:51;32.28;;;15.88;;
38240;SDS011;24037;49.536;8.500;2022-11-11T08:13:37;29.85;;;15.43;;
38240;SDS011;24037;49.536;8.500;2022-11-11T08:16:26;33.05;;;14.82;;
38240;SDS011;24037;49.536;8.500;2022-11-11T08:19:11;28.15;;;13.40;;
38240;SDS011;24037;49.536;8.500;2022-11-11T08:21:56;37.92;;;15.75;;
38240;SDS011;24037;49.536;8.500;2022-11-11T08:24:41;38.88;;;17.40;;
38240;SDS011;24037;49.536;8.500;2022-11-11T08:27:25;36.88;;;17.33;;
38240;SDS011;24037;49.536;8.500;2022-11-11T08:30:10;36.17;;;17.98;;
38240;SDS011;24037;49.536;8.500;2022-11-11T08:32:58;36.78;;;17.25;;
38240;SDS011;24037;49.536;8.500;2022-11-11T08:35:43;42.67;;;18.35;;
38240;SDS011;24037;49.536;8.500;2022-11-11T08:38:28;41.38;;;17.50;;
38240;SDS011;24037;49.536;8.500;2022-11-11T08:41:13;40.13;;;17.35;;
38240;SDS011;24037;49.536;8.500;2022-11-11T08:43:58;32.80;;;14.10;;
38240;SDS011;24037;49.536;8.500;2022-11-11T08:46:43;33.40;;;13.15;;
38240;SDS011;24037;49.536;8.500;2022-11-11T08:49:28;31.10;;;13.57;;
38240;SDS011;24037;49.536;8.500;2022-11-11T08:52:12;22.77;;;12.23;;
38240;SDS011;24037;49.536;8.500;2022-11-11T08:54:57;32.60;;;14.88;;
38240;SDS011;24037;49.536;8.500;2022-11-11T08:57:43;28.55;;;13.13;;
38240;SDS011;24037;49.536;8.500;2022-11-11T09:00:29;35.78;;;13.82;;
38240;SDS011;24037;49.536;8.500;2022-11-11T09:03:15;33.13;;;14.73;;
38240;SDS011;24037;49.536;8.500;2022-11-11T09:05:59;34.75;;;15.38;;
38240;SDS011;24037;49.536;8.500;2022-11-11T09:08:44;32.25;;;14.93;;
38240;SDS011;24037;49.536;8.500;2022-11-11T09:11:28;31.08;;;14.68;;
38240;SDS011;24037;49.536;8.500;2022-11-11T09:14:19;39.67;;;17.30;;
38240;SDS011;24037;49.536;8.500;2022-11-11T09:17:04;30.10;;;15.90;;
38240;SDS011;24037;49.536;8.500;2022-11-11T09:19:50;31.13;;;14.32;;
38240;SDS011;24037;49.536;8.500;2022-11-11T09:22:40;39.55;;;15.60;;
38240;SDS011;24037;49.536;8.500;2022-11-11T09:25:25;29.40;;;16.33;;
38240;SDS011;24037;49.536;8.500;2022-11-11T09:28:10;34.08;;;15.15;;
38240;SDS011;24037;49.536;8.500;2022-11-11T09:30:55;33.47;;;16.75;;
38240;SDS011;24037;49.536;8.500;2022-11-11T09:33:42;37.08;;;17.17;;
38240;SDS011;24037;49.536;8.500;2022-11-11T09:36:26;34.28;;;16.13;;
38240;SDS011;24037;49.536;8.500;2022-11-11T09:39:12;40.97;;;22.35;;
38240;SDS011;24037;49.536;8.500;2022-11-11T09:42:12;29.95;;;16.55;;
38240;SDS011;24037;49.536;8.500;2022-11-11T09:45:06;34.97;;;17.58;;
38240;SDS011;24037;49.536;8.500;2022-11-11T09:51:23;21.50;;;13.68;;
38240;SDS011;24037;49.536;8.500;2022-11-11T09:54:14;19.52;;;12.50;;
38240;SDS011;24037;49.536;8.500;2022-11-11T09:57:03;22.85;;;12.80;;
38240;SDS011;24037;49.536;8.500;2022-11-11T09:59:55;22.80;;;13.80;;
38240;SDS011;24037;49.536;8.500;2022-11-11T10:02:48;22.83;;;13.45;;
38240;SDS011;24037;49.536;8.500;2022-11-11T10:06:06;20.88;;;12.60;;
38240;SDS011;24037;49.536;8.500;2022-11-11T10:08:58;24.15;;;14.70;;
38240;SDS011;24037;49.536;8.500;2022-11-11T10:12:02;26.63;;;14.75;;
38240;SDS011;24037;49.536;8.500;2022-11-11T10:14:54;22.55;;;13.27;;
38240;SDS011;24037;49.536;8.500;2022-11-11T10:21:07;25.15;;;13.90;;
38240;SDS011;24037;49.536;8.500;2022-11-11T10:24:10;26.52;;;13.85;;
38240;SDS011;24037;49.536;8.500;2022-11-11T10:27:00;24.38;;;14.38;;
38240;SDS011;24037;49.536;8.500;2022-11-11T10:29:48;26.27;;;16.20;;
38240;SDS011;24037;49.536;8.500;2022-11-11T10:32:33;21.50;;;13.95;;
38240;SDS011;24037;49.536;8.500;2022-11-11T10:35:20;26.92;;;14.90;;
38240;SDS011;24037;49.536;8.500;2022-11-11T10:40:53;22.67;;;15.52;;
38240;SDS011;24037;49.536;8.500;2022-11-11T10:43:43;25.60;;;15.23;;
38240;SDS011;24037;49.536;8.500;2022-11-11T10:46:35;24.95;;;16.00;;
38240;SDS011;24037;49.536;8.500;2022-11-11T10:49:25;27.90;;;18.38;;
38240;SDS011;24037;49.536;8.500;2022-11-11T10:52:19;27.98;;;18.10;;
38240;SDS011;24037;49.536;8.500;2022-11-11T10:55:15;27.55;;;15.50;;
38240;SDS011;24037;49.536;8.500;2022-11-11T10:58:10;24.40;;;15.00;;
38240;SDS011;24037;49.536;8.500;2022-11-11T11:01:06;24.40;;;15.60;;
38240;SDS011;24037;49.536;8.500;2022-11-11T11:04:10;27.17;;;17.02;;
38240;SDS011;24037;49.536;8.500;2022-11-11T11:07:10;21.75;;;15.23;;
38240;SDS011;24037;49.536;8.500;2022-11-11T11:10:14;25.55;;;15.10;;
38240;SDS011;24037;49.536;8.500;2022-11-11T11:13:08;25.67;;;16.17;;
38240;SDS011;24037;49.536;8.500;2022-11-11T11:16:17;26.33;;;17.17;;
38240;SDS011;24037;49.536;8.500;2022-11-11T11:22:09;28.27;;;16.73;;
38240;SDS011;24037;49.536;8.500;2022-11-11T11:25:07;29.58;;;16.67;;
38240;SDS011;24037;49.536;8.500;2022-11-11T11:28:03;23.85;;;15.05;;
38240;SDS011;24037;49.536;8.500;2022-11-11T11:31:00;26.92;;;16.50;;
38240;SDS011;24037;49.536;8.500;2022-11-11T11:33:51;32.10;;;17.15;;
38240;SDS011;24037;49.536;8.500;2022-11-11T11:36:38;27.08;;;17.80;;
38240;SDS011;24037;49.536;8.500;2022-11-11T11:39:33;27.20;;;17.08;;
38240;SDS011;24037;49.536;8.500;2022-11-11T11:42:25;27.00;;;17.83;;
38240;SDS011;24037;49.536;8.500;2022-11-11T11:45:18;26.92;;;17.55;;
38240;SDS011;24037;49.536;8.500;2022-11-11T11:51:42;28.67;;;17.45;;
38240;SDS011;24037;49.536;8.500;2022-11-11T11:58:19;31.60;;;17.13;;
38240;SDS011;24037;49.536;8.500;2022-11-11T12:07:49;29.52;;;18.40;;
38240;SDS011;24037;49.536;8.500;2022-11-11T12:11:00;37.47;;;21.05;;
38240;SDS011;24037;49.536;8.500;2022-11-11T12:14:25;35.28;;;20.35;;
38240;SDS011;24037;49.536;8.500;2022-11-11T12:20:26;35.95;;;20.00;;
38240;SDS011;24037;49.536;8.500;2022-11-11T12:33:13;38.78;;;21.88;;
38240;SDS011;24037;49.536;8.500;2022-11-11T12:36:28;45.63;;;22.83;;
38240;SDS011;24037;49.536;8.500;2022-11-11T12:43:00;27.13;;;16.77;;
38240;SDS011;24037;49.536;8.500;2022-11-11T12:49:41;33.33;;;17.40;;
38240;SDS011;24037;49.536;8.500;2022-11-11T12:58:55;35.42;;;20.05;;
38240;SDS011;24037;49.536;8.500;2022-11-11T13:07:47;52.92;;;28.08;;
38240;SDS011;24037;49.536;8.500;2022-11-11T13:17:16;50.30;;;27.95;;
38240;SDS011;24037;49.536;8.500;2022-11-11T13:23:17;56.40;;;28.88;;
38240;SDS011;24037;49.536;8.500;2022-11-11T13:26:03;55.92;;;28.73;;
38240;SDS011;24037;49.536;8.500;2022-11-11T13:32:17;66.32;;;35.65;;
38240;SDS011;24037;49.536;8.500;2022-11-11T13:35:23;58.95;;;33.03;;
38240;SDS011;24037;49.536;8.500;2022-11-11T13:38:27;62.20;;;33.30;;
38240;SDS011;24037;49.536;8.500;2022-11-11T13:41:19;59.65;;;32.85;;
38240;SDS011;24037;49.536;8.500;2022-11-11T13:44:20;63.13;;;31.55;;
38240;SDS011;24037;49.536;8.500;2022-11-11T13:47:11;63.00;;;33.75;;
38240;SDS011;24037;49.536;8.500;2022-11-11T13:50:07;64.60;;;34.65;;
38240;SDS011;24037;49.536;8.500;2022-11-11T13:53:11;69.90;;;34.35;;
38240;SDS011;24037;49.536;8.500;2022-11-11T13:56:07;57.88;;;33.95;;
38240;SDS011;24037;49.536;8.500;2022-11-11T13:58:54;66.00;;;35.95;;
38240;SDS011;24037;49.536;8.500;2022-11-11T14:01:39;63.83;;;34.35;;
38240;SDS011;24037;49.536;8.500;2022-11-11T14:04:25;62.15;;;32.95;;
38240;SDS011;24037;49.536;8.500;2022-11-11T14:07:09;73.15;;;36.00;;
38240;SDS011;24037;49.536;8.500;2022-11-11T14:09:57;73.78;;;34.65;;
38240;SDS011;24037;49.536;8.500;2022-11-11T14:12:49;63.58;;;34.38;;
38240;SDS011;24037;49.536;8.500;2022-11-11T14:15:36;68.97;;;35.97;;
38240;SDS011;24037;49.536;8.500;2022-11-11T14:18:36;69.40;;;36.45;;
38240;SDS011;24037;49.536;8.500;2022-11-11T14:24:45;72.10;;;35.88;;
38240;SDS011;24037;49.536;8.500;2022-11-11T14:27:31;69.07;;;36.40;;
38240;SDS011;24037;49.536;8.500;2022-11-11T14:30:32;63.03;;;34.05;;
38240;SDS011;24037;49.536;8.500;2022-11-11T14:33:25;61.28;;;33.03;;
38240;SDS011;24037;49.536;8.500;2022-11-11T14:39:34;72.80;;;37.72;;
38240;SDS011;24037;49.536;8.500;2022-11-11T14:51:55;76.63;;;38.53;;
38240;SDS011;24037;49.536;8.500;2022-11-11T15:00:54;96.13;;;38.05;;
38240;SDS011;24037;49.536;8.500;2022-11-11T15:03:49;82.28;;;39.80;;
38240;SDS011;24037;49.536;8.500;2022-11-11T15:06:39;80.50;;;36.10;;
38240;SDS011;24037;49.536;8.500;2022-11-11T15:25:00;78.13;;;37.75;;
38240;SDS011;24037;49.536;8.500;2022-11-11T15:34:22;88.80;;;40.92;;
38240;SDS011;24037;49.536;8.500;2022-11-11T15:37:28;88.88;;;44.08;;
38240;SDS011;24037;49.536;8.500;2022-11-11T15:40:24;96.47;;;44.42;;
38240;SDS011;24037;49.536;8.500;2022-11-11T15:43:17;101.75;;;45.72;;
38240;SDS011;24037;49.536;8.500;2022-11-11T15:46:04;96.25;;;45.17;;
38240;SDS011;24037;49.536;8.500;2022-11-11T15:48:49;92.60;;;50.03;;
38240;SDS011;24037;49.536;8.500;2022-11-11T15:51:37;90.57;;;43.50;;
38240;SDS011;24037;49.536;8.500;2022-11-11T15:54:21;95.50;;;42.25;;
38240;SDS011;24037;49.536;8.500;2022-11-11T16:00:23;98.78;;;43.97;;
38240;SDS011;24037;49.536;8.500;2022-11-11T16:03:15;89.25;;;44.58;;
38240;SDS011;24037;49.536;8.500;2022-11-11T16:06:23;107.40;;;44.95;;
38240;SDS011;24037;49.536;8.500;2022-11-11T16:09:09;97.55;;;43.30;;
38240;SDS011;24037;49.536;8.500;2022-11-11T16:11:57;118.53;;;50.25;;
38240;SDS011;24037;49.536;8.500;2022-11-11T16:14:42;102.22;;;47.40;;
38240;SDS011;24037;49.536;8.500;2022-11-11T16:17:33;97.50;;;50.10;;
38240;SDS011;24037;49.536;8.500;2022-11-11T16:20:34;96.78;;;48.20;;
38240;SDS011;24037;49.536;8.500;2022-11-11T16:23:25;91.10;;;46.63;;
38240;SDS011;24037;49.536;8.500;2022-11-11T16:26:11;98.93;;;48.15;;
38240;SDS011;24037;49.536;8.500;2022-11-11T16:28:57;95.28;;;46.40;;
38240;SDS011;24037;49.536;8.500;2022-11-11T16:31:43;95.70;;;46.35;;
38240;SDS011;24037;49.536;8.500;2022-11-11T16:37:14;91.43;;;42.55;;
38240;SDS011;24037;49.536;8.500;2022-11-11T16:43:18;93.20;;;43.75;;
38240;SDS011;24037;49.536;8.500;2022-11-11T16:46:08;98.18;;;45.65;;
38240;SDS011;24037;49.536;8.500;2022-11-11T16:48:57;98.57;;;49.80;;
38240;SDS011;24037;49.536;8.500;2022-11-11T16:51:43;99.00;;;45.10;;
38240;SDS011;24037;49.536;8.500;2022-11-11T16:54:29;115.70;;;62.70;;
38240;SDS011;24037;49.536;8.500;2022-11-11T16:57:18;109.13;;;51.70;;
38240;SDS011;24037;49.536;8.500;2022-11-11T17:00:10;108.93;;;49.50;;
38240;SDS011;24037;49.536;8.500;2022-11-11T17:06:15;102.80;;;45.92;;
38240;SDS011;24037;49.536;8.500;2022-11-11T17:09:00;113.85;;;48.78;;
38240;SDS011;24037;49.536;8.500;2022-11-11T17:11:45;104.50;;;49.45;;
38240;SDS011;24037;49.536;8.500;2022-11-11T17:14:30;107.43;;;49.08;;
38240;SDS011;24037;49.536;8.500;2022-11-11T17:17:17;100.60;;;43.67;;
38240;SDS011;24037;49.536;8.500;2022-11-11T17:20:05;110.68;;;46.00;;
38240;SDS011;24037;49.536;8.500;2022-11-11T17:22:51;107.47;;;48.17;;
38240;SDS011;24037;49.536;8.500;2022-11-11T17:25:37;124.57;;;45.50;;
38240;SDS011;24037;49.536;8.500;2022-11-11T17:28:22;113.70;;;43.25;;
38240;SDS011;24037;49.536;8.500;2022-11-11T17:31:07;98.75;;;41.60;;
38240;SDS011;24037;49.536;8.500;2022-11-11T17:33:54;105.28;;;39.35;;
38240;SDS011;24037;49.536;8.500;2022-11-11T17:36:38;101.07;;;38.17;;
38240;SDS011;24037;49.536;8.500;2022-11-11T17:39:23;100.05;;;39.33;;
38240;SDS011;24037;49.536;8.500;2022-11-11T17:42:07;106.32;;;39.38;;
38240;SDS011;24037;49.536;8.500;2022-11-11T17:44:52;107.47;;;37.60;;
38240;SDS011;24037;49.536;8.500;2022-11-11T17:47:37;111.25;;;39.67;;
38240;SDS011;24037;49.536;8.500;2022-11-11T17:50:21;104.50;;;38.15;;
38240;SDS011;24037;49.536;8.500;2022-11-11T17:53:06;103.10;;;38.90;;
38240;SDS011;24037;49.536;8.500;2022-11-11T17:55:51;114.65;;;44.10;;
38240;SDS011;24037;49.536;8.500;2022-11-11T17:58:35;119.20;;;42.08;;
38240;SDS011;24037;49.536;8.500;2022-11-11T18:01:21;112.93;;;40.75;;
38240;SDS011;24037;49.536;8.500;2022-11-11T18:04:05;115.82;;;42.17;;
38240;SDS011;24037;49.536;8.500;2022-11-11T18:06:50;109.22;;;40.75;;
38240;SDS011;24037;49.536;8.500;2022-11-11T18:09:35;101.95;;;41.05;;
38240;SDS011;24037;49.536;8.500;2022-11-11T18:12:20;122.85;;;41.05;;
38240;SDS011;24037;49.536;8.500;2022-11-11T18:15:04;117.43;;;41.72;;
38240;SDS011;24037;49.536;8.500;2022-11-11T18:17:50;118.45;;;41.38;;
38240;SDS011;24037;49.536;8.500;2022-11-11T18:20:34;133.10;;;46.17;;
38240;SDS011;24037;49.536;8.500;2022-11-11T18:23:19;119.60;;;41.30;;
38240;SDS011;24037;49.536;8.500;2022-11-11T18:26:04;119.63;;;42.13;;
38240;SDS011;24037;49.536;8.500;2022-11-11T18:28:50;120.47;;;40.88;;
38240;SDS011;24037;49.536;8.500;2022-11-11T18:31:35;130.18;;;44.97;;
38240;SDS011;24037;49.536;8.500;2022-11-11T18:34:20;117.70;;;42.25;;
38240;SDS011;24037;49.536;8.500;2022-11-11T18:37:05;126.80;;;45.08;;
38240;SDS011;24037;49.536;8.500;2022-11-11T18:39:50;116.88;;;42.30;;
38240;SDS011;24037;49.536;8.500;2022-11-11T18:42:35;122.18;;;40.80;;
38240;SDS011;24037;49.536;8.500;2022-11-11T18:45:20;125.15;;;42.70;;